Time;durP1;ratioP1;P1;durP2;ratioP2;P2;SDS_P1;SDS_P2;PMS_P1;PMS_P2;Temp;Humidity;BMP_temperature;BMP_pressure;BME280_temperature;BME280_humidity;BME280_pressure;Samples;Min_cycle;Max_cycle;Signal;HPM_P1;HPM_P2
2023/07/12 00:00:43;;;;;;;1999.90;999.90;;;20.00;99.90;;;;;;4957855;29;20485;-68
2023/07/12 00:03:09;;;;;;;1999.90;999.90;;;20.00;99.90;;;;;;4961589;28;20023;-68
2023/07/12 00:05:35;;;;;;;1999.90;999.90;;;20.10;99.90;;;;;;4977277;28;20027;-68
2023/07/12 00:08:01;;;;;;;1999.90;999.90;;;20.10;99.90;;;;;;4977340;28;20023;-68
2023/07/12 00:10:31;;;;;;;1999.90;999.90;;;20.00;99.90;;;;;;4964297;28;20058;-70
2023/07/12 00:12:57;;;;;;;1999.90;999.90;;;20.00;99.90;;;;;;4957764;29;20031;-68
2023/07/12 00:15:28;;;;;;;1999.90;999.90;;;19.90;99.90;;;;;;4957892;29;20028;-68
2023/07/12 00:17:55;;;;;;;1999.90;999.90;;;20.00;99.90;;;;;;4957876;29;20050;-68
2023/07/12 00:20:30;;;;;;;1999.90;999.90;;;20.00;99.90;;;;;;4957819;29;20162;-68
2023/07/12 00:22:56;;;;;;;1999.90;999.90;;;20.00;99.90;;;;;;4957114;29;20474;-68
2023/07/12 00:25:30;;;;;;;1999.90;999.90;;;20.00;99.90;;;;;;4957498;29;20025;-68
2023/07/12 00:27:56;;;;;;;1999.90;999.90;;;20.10;99.90;;;;;;4957946;29;20031;-68
2023/07/12 00:30:28;;;;;;;1999.90;999.90;;;20.10;99.90;;;;;;4956502;29;20478;-68
2023/07/12 00:32:57;;;;;;;1999.90;999.90;;;20.10;99.90;;;;;;4957875;29;20386;-68
2023/07/12 00:35:26;;;;;;;1999.90;999.90;;;20.10;99.90;;;;;;4957599;29;20027;-69
2023/07/12 00:37:55;;;;;;;1999.90;999.90;;;20.20;99.90;;;;;;4957022;29;20039;-68
2023/07/12 00:40:38;;;;;;;1999.90;999.90;;;20.30;99.90;;;;;;4957836;29;20027;-68
2023/07/12 00:43:26;;;;;;;1999.90;999.90;;;20.30;99.90;;;;;;4957917;29;20031;-68
2023/07/12 00:45:54;;;;;;;1999.90;999.90;;;20.30;99.90;;;;;;4957366;29;20031;-68
2023/07/12 00:48:20;;;;;;;1999.90;999.90;;;20.20;99.90;;;;;;4957292;29;20490;-68
2023/07/12 00:50:48;;;;;;;1999.90;999.90;;;20.10;99.90;;;;;;4956939;29;20024;-68
2023/07/12 00:53:19;;;;;;;1999.90;999.90;;;20.00;99.90;;;;;;4957165;28;20434;-69
2023/07/12 00:56:09;;;;;;;1999.90;999.90;;;19.90;99.90;;;;;;4957610;29;20058;-69
2023/07/12 00:58:40;;;;;;;1999.90;999.90;;;19.90;99.90;;;;;;4956985;29;20031;-69
2023/07/12 01:01:07;;;;;;;1999.90;999.90;;;19.90;99.90;;;;;;4957001;28;20027;-68
2023/07/12 01:03:36;;;;;;;1999.90;999.90;;;19.90;99.90;;;;;;4963837;28;20117;-70
2023/07/12 01:06:04;;;;;;;1999.90;999.90;;;20.00;99.90;;;;;;4959208;28;20049;-68
2023/07/12 01:08:30;;;;;;;1999.90;999.90;;;19.90;99.90;;;;;;4976864;28;20093;-68
2023/07/12 01:10:57;;;;;;;1999.90;999.90;;;19.80;99.90;;;;;;4959359;28;20132;-68
2023/07/12 01:13:23;;;;;;;1999.90;999.90;;;19.70;99.90;;;;;;4956777;29;20023;-68
2023/07/12 01:15:50;;;;;;;1999.90;999.90;;;19.30;99.90;;;;;;4956988;29;20023;-70
2023/07/12 01:18:16;;;;;;;1999.90;999.90;;;19.30;99.90;;;;;;4956804;29;20019;-68
2023/07/12 01:20:43;;;;;;;1999.90;999.90;;;19.20;99.90;;;;;;4956810;29;20392;-68
2023/07/12 01:23:09;;;;;;;1999.90;999.90;;;19.20;99.90;;;;;;4956115;29;20119;-68
2023/07/12 01:25:41;;;;;;;1999.90;999.90;;;19.30;99.90;;;;;;4956376;29;20044;-68
2023/07/12 01:28:07;;;;;;;1999.90;999.90;;;19.30;99.90;;;;;;4956924;29;20030;-68
2023/07/12 01:30:33;;;;;;;1999.90;999.90;;;19.30;99.90;;;;;;4956997;29;20023;-68
2023/07/12 01:32:59;;;;;;;1999.90;999.90;;;19.40;99.90;;;;;;4954932;29;20106;-68
2023/07/12 01:35:25;;;;;;;1999.90;999.90;;;19.40;99.90;;;;;;4955217;29;20055;-67
2023/07/12 01:37:51;;;;;;;1999.90;999.90;;;19.40;99.90;;;;;;4956006;29;20455;-68
2023/07/12 01:40:16;;;;;;;1999.90;999.90;;;19.30;99.90;;;;;;4956441;29;20493;-68
2023/07/12 01:42:42;;;;;;;1999.90;999.90;;;19.10;99.90;;;;;;4956238;29;20474;-68
2023/07/12 01:45:08;;;;;;;1999.90;999.90;;;19.10;99.90;;;;;;4956321;29;20482;-67
2023/07/12 01:47:34;;;;;;;1999.90;999.90;;;19.00;99.90;;;;;;4956112;29;20027;-68
2023/07/12 01:50:00;;;;;;;1999.90;999.90;;;19.00;99.90;;;;;;4938754;29;20042;-67
2023/07/12 01:52:25;;;;;;;1999.90;999.90;;;19.00;99.90;;;;;;4955916;28;20053;-69
2023/07/12 01:54:51;;;;;;;1999.90;999.90;;;19.00;99.90;;;;;;4938554;29;20062;-68
2023/07/12 01:57:16;;;;;;;1999.90;999.90;;;19.00;99.90;;;;;;4956165;29;20035;-67
2023/07/12 01:59:42;;;;;;;1999.90;999.90;;;19.00;99.90;;;;;;4955996;29;20458;-68
2023/07/12 02:02:08;;;;;;;1999.90;999.90;;;19.00;99.90;;;;;;4956087;29;20034;-68
2023/07/12 02:04:34;;;;;;;1999.90;999.90;;;19.00;99.90;;;;;;4955551;29;20039;-68
2023/07/12 02:07:02;;;;;;;1999.90;999.90;;;18.90;99.90;;;;;;4955862;29;20045;-68
2023/07/12 02:09:34;;;;;;;1999.90;999.90;;;18.90;99.90;;;;;;4956369;29;20422;-68
2023/07/12 02:12:00;;;;;;;1999.90;999.90;;;18.90;99.90;;;;;;4955688;28;20019;-68
2023/07/12 02:14:25;;;;;;;1999.90;999.90;;;18.80;99.90;;;;;;4955853;29;20067;-67
2023/07/12 02:16:51;;;;;;;1999.90;999.90;;;18.80;99.90;;;;;;4955487;29;20059;-68
2023/07/12 02:19:17;;;;;;;1999.90;999.90;;;18.80;99.90;;;;;;4956111;29;20070;-68
2023/07/12 02:21:42;;;;;;;1999.90;999.90;;;18.80;99.90;;;;;;4956036;29;20030;-68
2023/07/12 02:24:08;;;;;;;1999.90;999.90;;;18.80;99.90;;;;;;4953993;29;20027;-68
2023/07/12 02:26:35;;;;;;;1999.90;999.90;;;18.80;99.90;;;;;;4955601;29;20359;-68
2023/07/12 02:29:01;;;;;;;1999.90;999.90;;;18.90;99.90;;;;;;4955347;29;20031;-67
2023/07/12 02:31:29;;;;;;;1999.90;999.90;;;18.90;99.90;;;;;;4955816;29;20042;-67
2023/07/12 02:33:54;;;;;;;1999.90;999.90;;;18.90;99.90;;;;;;4955925;29;20031;-67
2023/07/12 02:36:20;;;;;;;1999.90;999.90;;;18.90;99.90;;;;;;4955301;29;20027;-67
2023/07/12 02:38:49;;;;;;;1999.90;999.90;;;18.90;99.90;;;;;;4955370;29;20438;-67
2023/07/12 02:41:16;;;;;;;1999.90;999.90;;;18.80;99.90;;;;;;4955260;29;20434;-68
2023/07/12 02:43:41;;;;;;;1999.90;999.90;;;18.80;99.90;;;;;;4937949;29;20113;-68
2023/07/12 02:46:07;;;;;;;1999.90;999.90;;;18.70;99.90;;;;;;4934851;29;20071;-69
2023/07/12 02:48:33;;;;;;;1999.90;999.90;;;18.70;99.90;;;;;;4936333;29;20028;-68
2023/07/12 02:50:58;;;;;;;1999.90;999.90;;;18.70;99.90;;;;;;4936018;29;20032;-67
2023/07/12 02:53:24;;;;;;;1999.90;999.90;;;18.50;99.90;;;;;;4935963;29;20392;-67
2023/07/12 02:55:50;;;;;;;1999.90;999.90;;;18.50;99.90;;;;;;4936638;29;20020;-67
2023/07/12 02:58:17;;;;;;;1999.90;999.90;;;18.40;99.90;;;;;;4935983;29;20036;-67
2023/07/12 03:00:42;;;;;;;1999.90;999.90;;;18.30;99.90;;;;;;4936386;29;20403;-69
2023/07/12 03:03:09;;;;;;;1999.90;999.90;;;18.30;99.90;;;;;;4939264;29;20067;-67
2023/07/12 03:05:35;;;;;;;1999.90;999.90;;;18.20;99.90;;;;;;4955074;29;20106;-67
2023/07/12 03:08:01;;;;;;;1999.90;999.90;;;18.10;99.90;;;;;;4955413;29;20098;-67
2023/07/12 03:10:27;;;;;;;1999.90;999.90;;;18.10;99.90;;;;;;4954689;29;20499;-68
2023/07/12 03:12:54;;;;;;;1999.90;999.90;;;18.10;99.90;;;;;;4954978;29;20027;-67
2023/07/12 03:15:20;;;;;;;1999.90;999.90;;;18.10;99.90;;;;;;4938193;29;20370;-67
2023/07/12 03:17:45;;;;;;;1999.90;999.90;;;18.10;99.90;;;;;;4954918;29;20478;-68
2023/07/12 03:20:12;;;;;;;1999.90;999.90;;;18.00;99.90;;;;;;4955252;29;20023;-67
2023/07/12 03:22:37;;;;;;;1999.90;999.90;;;18.00;99.90;;;;;;4954810;28;20046;-67
2023/07/12 03:25:03;;;;;;;1999.90;999.90;;;18.10;99.90;;;;;;4956661;29;20406;-69
2023/07/12 03:27:29;;;;;;;1999.90;999.90;;;18.00;99.90;;;;;;4959271;29;20023;-67
2023/07/12 03:29:56;;;;;;;1999.90;999.90;;;18.10;99.90;;;;;;4958937;28;20047;-67
2023/07/12 03:32:23;;;;;;;1999.90;999.90;;;18.10;99.90;;;;;;4958878;29;20090;-67
2023/07/12 03:34:48;;;;;;;1999.90;999.90;;;18.10;99.90;;;;;;4957336;29;20043;-67
2023/07/12 03:37:14;;;;;;;1999.90;999.90;;;18.10;99.90;;;;;;4959008;29;20039;-67
2023/07/12 03:39:39;;;;;;;1999.90;999.90;;;18.20;99.90;;;;;;4958532;29;20387;-67
2023/07/12 03:42:05;;;;;;;1999.90;999.90;;;18.20;99.90;;;;;;4958544;29;20063;-67
2023/07/12 03:44:31;;;;;;;1999.90;999.90;;;18.20;99.90;;;;;;4958634;29;20027;-67
2023/07/12 03:46:57;;;;;;;1999.90;999.90;;;18.20;99.90;;;;;;4958088;29;20079;-67
2023/07/12 03:49:22;;;;;;;1999.90;999.90;;;18.20;99.90;;;;;;4958548;29;20375;-67
2023/07/12 03:51:48;;;;;;;1999.90;999.90;;;18.20;99.90;;;;;;4941380;29;20085;-69
2023/07/12 03:54:14;;;;;;;1999.90;999.90;;;18.30;99.90;;;;;;4957988;29;20059;-67
2023/07/12 03:56:40;;;;;;;1999.90;999.90;;;18.30;99.90;;;;;;4958831;29;20039;-67
2023/07/12 03:59:07;;;;;;;1999.90;999.90;;;18.40;99.90;;;;;;4958551;29;20027;-67
2023/07/12 04:01:33;;;;;;;1999.90;999.90;;;18.40;99.90;;;;;;4958192;29;20046;-68
2023/07/12 04:03:59;;;;;;;1999.90;999.90;;;18.40;99.90;;;;;;4968504;28;20541;-67
2023/07/12 04:06:24;;;;;;;1999.90;999.90;;;18.40;99.90;;;;;;4977964;28;20029;-68
2023/07/12 04:08:50;;;;;;;1999.90;999.90;;;18.40;99.90;;;;;;4977022;28;20027;-67
2023/07/12 04:11:26;;;;;;;1999.90;999.90;;;18.50;99.90;;;;;;4958259;28;20042;-69
2023/07/12 04:13:52;;;;;;;1999.90;999.90;;;18.50;99.90;;;;;;4957938;29;20459;-68
2023/07/12 04:16:18;;;;;;;1999.90;999.90;;;18.50;99.90;;;;;;4958239;29;20027;-69
2023/07/12 04:18:44;;;;;;;1999.90;999.90;;;18.40;99.90;;;;;;4957474;29;20031;-67
2023/07/12 04:21:09;;;;;;;1999.90;999.90;;;18.40;99.90;;;;;;4958219;29;20481;-67
2023/07/12 04:23:35;;;;;;;1999.90;999.90;;;18.40;99.90;;;;;;4957833;29;20387;-68
2023/07/12 04:26:02;;;;;;;1999.90;999.90;;;18.40;99.90;;;;;;4956794;29;20033;-68
2023/07/12 04:28:29;;;;;;;1999.90;999.90;;;18.40;99.90;;;;;;4957414;29;20082;-69
2023/07/12 04:30:55;;;;;;;1999.90;999.90;;;18.40;99.90;;;;;;4957355;29;20027;-69
2023/07/12 04:33:23;;;;;;;1999.90;999.90;;;18.30;99.90;;;;;;4957486;29;20484;-68
2023/07/12 04:35:48;;;;;;;1999.90;999.90;;;18.30;99.90;;;;;;4956918;28;20062;-68
2023/07/12 04:38:14;;;;;;;1999.90;999.90;;;18.30;99.90;;;;;;4955446;28;20051;-69
2023/07/12 04:40:39;;;;;;;1999.90;999.90;;;18.30;99.90;;;;;;4957075;29;20478;-68
2023/07/12 04:43:05;;;;;;;1999.90;999.90;;;18.40;99.90;;;;;;4957357;29;20035;-68
2023/07/12 04:45:31;;;;;;;1999.90;999.90;;;18.30;99.90;;;;;;4957078;29;20459;-68
2023/07/12 04:47:56;;;;;;;1999.90;999.90;;;18.30;99.90;;;;;;4957226;29;20114;-67
2023/07/12 04:50:22;;;;;;;1999.90;999.90;;;18.20;99.90;;;;;;4957068;29;20494;-68
2023/07/12 04:52:47;;;;;;;1999.90;999.90;;;18.20;99.90;;;;;;4939365;29;20047;-68
2023/07/12 04:55:22;;;;;;;1999.90;999.90;;;18.20;99.90;;;;;;4940209;29;20035;-68
2023/07/12 04:57:48;;;;;;;1999.90;999.90;;;18.20;99.90;;;;;;4955921;29;20050;-68
2023/07/12 05:00:14;;;;;;;1999.90;999.90;;;18.20;99.90;;;;;;4968319;28;20505;-68
2023/07/12 05:02:40;;;;;;;1999.90;999.90;;;18.30;99.90;;;;;;4950126;29;20028;-68
2023/07/12 05:05:06;;;;;;;1999.90;999.90;;;18.30;99.90;;;;;;4941543;29;20536;-68
2023/07/12 05:07:32;;;;;;;1999.90;999.90;;;18.30;99.90;;;;;;4957328;29;20043;-69
2023/07/12 05:09:57;;;;;;;1999.90;999.90;;;18.30;99.90;;;;;;4956603;29;20035;-69
2023/07/12 05:12:23;;;;;;;1999.90;999.90;;;18.20;99.90;;;;;;4956747;29;20051;-68
2023/07/12 05:14:49;;;;;;;1999.90;999.90;;;18.30;99.90;;;;;;4956431;29;20405;-68
2023/07/12 05:17:14;;;;;;;1999.90;999.90;;;18.30;99.90;;;;;;4956684;29;20054;-68
2023/07/12 05:19:40;;;;;;;1999.90;999.90;;;18.30;99.90;;;;;;4956744;29;20038;-68
2023/07/12 05:22:05;;;;;;;1999.90;999.90;;;18.30;99.90;;;;;;4956661;28;20038;-69
2023/07/12 05:24:31;;;;;;;1999.90;999.90;;;18.30;99.90;;;;;;4962730;28;20126;-68
2023/07/12 05:26:58;;;;;;;1999.90;999.90;;;18.30;99.90;;;;;;4955545;29;20031;-68
2023/07/12 05:29:23;;;;;;;1999.90;999.90;;;18.30;99.90;;;;;;4956061;29;20046;-68
2023/07/12 05:31:49;;;;;;;1999.90;999.90;;;18.30;99.90;;;;;;4956156;29;20486;-68
2023/07/12 05:34:15;;;;;;;1999.90;999.90;;;18.40;99.90;;;;;;4956127;29;20031;-68
2023/07/12 05:36:40;;;;;;;1999.90;999.90;;;18.40;99.90;;;;;;4955307;28;20054;-69
2023/07/12 05:39:06;;;;;;;1999.90;999.90;;;18.30;99.90;;;;;;4957483;28;20047;-68
2023/07/12 05:41:32;;;;;;;1999.90;999.90;;;18.30;99.90;;;;;;4964270;28;20513;-68
2023/07/12 05:43:57;;;;;;;1999.90;999.90;;;18.30;99.90;;;;;;4954193;29;20101;-68
2023/07/12 05:46:23;;;;;;;1999.90;999.90;;;18.30;99.90;;;;;;4954670;28;20023;-68
2023/07/12 05:48:49;;;;;;;1999.90;999.90;;;18.40;99.90;;;;;;4954935;28;20174;-68
2023/07/12 05:51:15;;;;;;;1999.90;999.90;;;18.40;99.90;;;;;;4955483;29;20110;-68
2023/07/12 05:53:41;;;;;;;1999.90;999.90;;;18.40;99.90;;;;;;4955163;28;20055;-68
2023/07/12 05:56:06;;;;;;;1999.90;999.90;;;18.40;99.90;;;;;;4955136;29;20032;-68
2023/07/12 05:58:32;;;;;;;1999.90;999.90;;;18.50;99.90;;;;;;4955250;29;20075;-68
2023/07/12 06:00:59;;;;;;;1999.90;999.90;;;18.50;99.90;;;;;;4954873;29;20046;-68
2023/07/12 06:03:26;;;;;;;1999.90;999.90;;;18.60;99.90;;;;;;4960923;28;20034;-68
2023/07/12 06:05:52;;;;;;;1999.90;999.90;;;18.70;99.90;;;;;;4970827;28;20118;-67
2023/07/12 06:08:18;;;;;;;1999.90;999.90;;;18.80;99.90;;;;;;4955276;28;20027;-67
2023/07/12 06:10:45;;;;;;;1999.90;999.90;;;18.80;99.90;;;;;;4952161;28;20101;-69
2023/07/12 06:13:10;;;;;;;1999.90;999.90;;;18.80;99.90;;;;;;4954434;29;20106;-68
2023/07/12 06:15:37;;;;;;;1999.90;999.90;;;18.70;99.90;;;;;;4954606;29;20582;-70
2023/07/12 06:18:03;;;;;;;1999.90;999.90;;;18.60;99.90;;;;;;4938154;29;20035;-70
2023/07/12 06:20:28;;;;;;;1999.90;999.90;;;18.70;99.90;;;;;;4937696;29;20406;-70
2023/07/12 06:22:54;;;;;;;1999.90;999.90;;;18.70;99.90;;;;;;4954789;28;20035;-70
2023/07/12 06:25:20;;;;;;;1999.90;999.90;;;18.70;99.90;;;;;;4952496;29;20042;-70
2023/07/12 06:27:46;;;;;;;1999.90;999.90;;;18.80;99.90;;;;;;4936432;29;20110;-70
2023/07/12 06:30:12;;;;;;;1999.90;999.90;;;18.80;99.90;;;;;;4936368;29;20037;-70
2023/07/12 06:32:37;;;;;;;1999.90;999.90;;;18.90;99.90;;;;;;4952788;29;20430;-70
2023/07/12 06:35:03;;;;;;;1999.90;999.90;;;19.00;99.90;;;;;;4952466;29;20035;-70
2023/07/12 06:37:29;;;;;;;1999.90;999.90;;;19.00;99.90;;;;;;4955516;28;20082;-70
2023/07/12 06:39:55;;;;;;;1999.90;999.90;;;19.00;99.90;;;;;;4949867;28;20422;-70
2023/07/12 06:42:20;;;;;;;1999.90;999.90;;;19.10;99.90;;;;;;4951758;29;20098;-70
2023/07/12 06:44:46;;;;;;;1999.90;999.90;;;19.10;99.90;;;;;;4951558;29;20125;-70
2023/07/12 06:47:11;;;;;;;1999.90;999.90;;;19.20;99.90;;;;;;4950400;29;20063;-70
2023/07/12 06:49:37;;;;;;;1999.90;999.90;;;19.20;99.90;;;;;;4952783;29;20038;-70
2023/07/12 06:52:03;;;;;;;1999.90;999.90;;;19.20;99.90;;;;;;4952528;29;20023;-70
2023/07/12 06:54:29;;;;;;;1999.90;999.90;;;19.10;99.90;;;;;;4950807;29;20138;-70
2023/07/12 06:56:54;;;;;;;1999.90;999.90;;;19.20;99.90;;;;;;4952311;29;20110;-69
2023/07/12 06:59:21;;;;;;;1999.90;999.90;;;19.30;99.90;;;;;;4944120;28;20097;-69
2023/07/12 07:01:47;;;;;;;1999.90;999.90;;;19.50;99.90;;;;;;4940487;29;20039;-70
2023/07/12 07:04:13;;;;;;;1999.90;999.90;;;19.40;99.90;;;;;;4956004;28;20070;-69
2023/07/12 07:06:39;;;;;;;1999.90;999.90;;;19.50;99.90;;;;;;4941811;29;20097;-69
2023/07/12 07:09:05;;;;;;;1999.90;999.90;;;19.40;99.90;;;;;;4952117;29;20459;-70
2023/07/12 07:11:30;;;;;;;1999.90;999.90;;;19.40;99.90;;;;;;4942715;29;20031;-69
2023/07/12 07:13:56;;;;;;;1999.90;999.90;;;19.50;99.90;;;;;;4948796;29;20032;-69
2023/07/12 07:16:23;;;;;;;1999.90;999.90;;;19.50;99.90;;;;;;4947977;29;20039;-69
2023/07/12 07:18:49;;;;;;;1999.90;999.90;;;19.50;99.90;;;;;;4949466;29;20031;-69
2023/07/12 07:21:15;;;;;;;1999.90;999.90;;;19.50;99.90;;;;;;4949095;28;20046;-69
2023/07/12 07:23:40;;;;;;;1999.90;999.90;;;19.60;99.90;;;;;;4953509;28;20023;-69
2023/07/12 07:26:07;;;;;;;1999.90;999.90;;;19.70;99.90;;;;;;4951984;29;20379;-70
2023/07/12 07:28:34;;;;;;;1999.90;999.90;;;19.70;99.90;;;;;;4949238;29;20027;-70
2023/07/12 07:31:00;;;;;;;1999.90;999.90;;;19.70;99.90;;;;;;4944906;29;20041;-70
2023/07/12 07:33:27;;;;;;;1999.90;999.90;;;19.80;99.90;;;;;;4951639;28;20397;-69
2023/07/12 07:35:53;;;;;;;1999.90;999.90;;;19.90;99.90;;;;;;4956132;28;20524;-69
2023/07/12 07:38:18;;;;;;;1999.90;999.90;;;19.80;99.90;;;;;;4940181;29;20122;-69
2023/07/12 07:40:44;;;;;;;1999.90;999.90;;;19.80;99.90;;;;;;4950436;29;20158;-69
2023/07/12 07:43:13;;;;;;;1999.90;999.90;;;20.10;99.90;;;;;;4948065;28;20050;-69
2023/07/12 07:45:39;;;;;;;1999.90;999.90;;;20.10;99.90;;;;;;4951379;29;20421;-70
2023/07/12 07:48:05;;;;;;;1999.90;999.90;;;20.10;99.90;;;;;;4952234;28;20490;-69
2023/07/12 07:50:31;;;;;;;1999.90;999.90;;;20.30;99.90;;;;;;4951893;28;20030;-69
2023/07/12 07:52:57;;;;;;;1999.90;999.90;;;20.60;99.90;;;;;;4951108;29;20074;-70
2023/07/12 07:55:22;;;;;;;1999.90;999.90;;;20.70;99.90;;;;;;4949625;29;20035;-69
2023/07/12 07:57:48;;;;;;;1999.90;999.90;;;20.90;99.90;;;;;;4952160;29;20138;-70
2023/07/12 08:00:15;;;;;;;1999.90;999.90;;;21.00;99.90;;;;;;4951083;28;20576;-69
2023/07/12 08:02:43;;;;;;;1999.90;999.90;;;21.00;99.90;;;;;;4950921;28;20027;-70
2023/07/12 08:05:11;;;;;;;1999.90;999.90;;;21.00;99.90;;;;;;4957441;28;20039;-70
2023/07/12 08:07:42;;;;;;;1999.90;999.90;;;21.00;99.90;;;;;;4951415;28;20023;-69
2023/07/12 08:10:09;;;;;;;1999.90;999.90;;;20.90;99.90;;;;;;4952379;28;20087;-70
2023/07/12 08:12:36;;;;;;;1999.90;999.90;;;20.80;99.90;;;;;;4954401;29;20026;-70
2023/07/12 08:15:01;;;;;;;1999.90;999.90;;;20.70;99.90;;;;;;4954880;29;20395;-70
2023/07/12 08:17:27;;;;;;;1999.90;999.90;;;20.70;99.90;;;;;;4952924;28;20049;-70
2023/07/12 08:19:53;;;;;;;1999.90;999.90;;;20.80;99.90;;;;;;4954843;28;20050;-70
2023/07/12 08:22:19;;;;;;;1999.90;999.90;;;20.80;99.90;;;;;;4962858;28;20030;-70
2023/07/12 08:24:46;;;;;;;1999.90;999.90;;;20.90;99.90;;;;;;4944173;29;20043;-70
2023/07/12 08:27:12;;;;;;;1999.90;999.90;;;21.20;99.90;;;;;;4954028;29;20035;-70
2023/07/12 08:29:39;;;;;;;1999.90;999.90;;;21.30;99.90;;;;;;4954472;28;20470;-69
2023/07/12 08:32:05;;;;;;;1999.90;999.90;;;21.60;99.90;;;;;;4954335;28;20032;-69
2023/07/12 08:34:31;;;;;;;1999.90;999.90;;;22.10;99.90;;;;;;4955892;29;20082;-70
2023/07/12 08:36:56;;;;;;;1999.90;999.90;;;22.70;99.90;;;;;;4954427;29;20039;-70
2023/07/12 08:39:23;;;;;;;1999.90;999.90;;;23.10;99.90;;;;;;4948806;29;20067;-70
2023/07/12 08:41:51;;;;;;;1999.90;999.90;;;23.10;99.90;;;;;;4954567;28;20035;-70
2023/07/12 08:44:17;;;;;;;1999.90;999.90;;;23.00;99.90;;;;;;4954000;28;20035;-70
2023/07/12 08:46:51;;;;;;;1999.90;999.90;;;22.90;99.90;;;;;;4953993;28;20506;-70
2023/07/12 08:49:17;;;;;;;1999.90;999.90;;;22.90;99.90;;;;;;4954525;28;20393;-70
2023/07/12 08:51:45;;;;;;;1999.90;999.90;;;23.10;99.90;;;;;;4954337;28;20107;-70
2023/07/12 08:54:33;;;;;;;1999.90;999.90;;;23.30;99.90;;;;;;4953986;28;20526;-70
2023/07/12 08:57:17;;;;;;;1999.90;999.90;;;23.80;99.90;;;;;;4953812;28;20039;-70
2023/07/12 09:00:05;;;;;;;1999.90;999.90;;;24.20;99.90;;;;;;4942821;29;20383;-70
2023/07/12 09:02:31;;;;;;;1999.90;999.90;;;24.70;99.90;;;;;;4953645;28;20034;-70
2023/07/12 09:04:59;;;;;;;1999.90;999.90;;;24.80;99.90;;;;;;4963862;28;20039;-71
2023/07/12 09:07:35;;;;;;;1999.90;999.90;;;24.30;99.90;;;;;;4953909;28;20035;-70
2023/07/12 09:10:03;;;;;;;1999.90;999.90;;;23.90;99.90;;;;;;4954519;29;20023;-70
2023/07/12 09:12:32;;;;;;;1999.90;999.90;;;23.20;99.90;;;;;;4954044;28;20432;-70
2023/07/12 09:15:00;;;;;;;1999.90;999.90;;;23.20;99.90;;;;;;4951244;28;20040;-70
2023/07/12 09:17:32;;;;;;;1999.90;999.90;;;23.10;99.90;;;;;;4954830;28;20063;-70
2023/07/12 09:19:58;;;;;;;1999.90;999.90;;;23.60;99.90;;;;;;4965365;28;20090;-70
2023/07/12 09:22:23;;;;;;;1999.90;999.90;;;24.00;99.90;;;;;;4953227;28;20414;-70
2023/07/12 09:24:54;;;;;;;1999.90;999.90;;;24.60;99.90;;;;;;4955065;28;20031;-70
2023/07/12 09:27:23;;;;;;;1999.90;999.90;;;25.30;99.90;;;;;;4952964;29;20078;-71
2023/07/12 09:29:59;;;;;;;1999.90;999.90;;;25.20;99.90;;;;;;4953608;28;20046;-71
2023/07/12 09:32:33;;;;;;;1999.90;999.90;;;24.80;99.90;;;;;;4953787;29;20031;-70
2023/07/12 09:35:00;;;;;;;1999.90;999.90;;;24.70;99.90;;;;;;4953487;28;20038;-70
2023/07/12 09:37:26;;;;;;;1999.90;999.90;;;24.00;99.90;;;;;;4960901;28;20129;-70
2023/07/12 09:40:00;;;;;;;1999.90;999.90;;;23.50;99.90;;;;;;4954038;29;20541;-70
2023/07/12 09:42:28;;;;;;;1999.90;999.90;;;23.40;99.90;;;;;;4954505;29;20035;-70
2023/07/12 09:44:54;;;;;;;1999.90;999.90;;;23.60;99.90;;;;;;4953213;29;20027;-71
2023/07/12 09:47:28;;;;;;;1999.90;999.90;;;23.60;99.90;;;;;;4953587;29;20549;-70
2023/07/12 09:50:07;;;;;;;1999.90;999.90;;;23.50;99.90;;;;;;4939398;29;20528;-70
2023/07/12 09:52:44;;;;;;;1999.90;999.90;;;23.30;99.90;;;;;;4952751;29;20070;-70
2023/07/12 09:55:20;;;;;;;1999.90;999.90;;;23.20;99.90;;;;;;4951711;28;20166;-70
2023/07/12 09:58:03;;;;;;;1999.90;999.90;;;23.40;99.90;;;;;;4952868;28;20090;-70
2023/07/12 10:00:47;;;;;;;1999.90;999.90;;;24.00;99.90;;;;;;4953269;29;20195;-70
2023/07/12 10:03:26;;;;;;;1999.90;999.90;;;24.70;99.90;;;;;;4951534;28;20035;-70
2023/07/12 10:06:22;;;;;;;1999.90;999.90;;;24.40;99.90;;;;;;4957077;28;20532;-70
2023/07/12 10:08:59;;;;;;;1999.90;999.90;;;24.20;99.90;;;;;;4952311;28;20786;-70
2023/07/12 10:11:34;;;;;;;1999.90;999.90;;;24.00;99.90;;;;;;4953268;28;20015;-69
2023/07/12 10:14:06;;;;;;;1999.90;999.90;;;24.60;99.90;;;;;;4952447;28;20058;-69
2023/07/12 10:16:35;;;;;;;1999.90;999.90;;;25.30;99.90;;;;;;4952473;29;20027;-69
2023/07/12 10:19:25;;;;;;;1999.90;999.90;;;25.50;99.90;;;;;;4945150;29;20043;-71
2023/07/12 10:21:55;;;;;;;1999.90;999.90;;;25.80;99.90;;;;;;4954432;28;20117;-70
2023/07/12 10:24:28;;;;;;;1999.90;999.90;;;25.80;99.90;;;;;;4955443;28;20359;-70
2023/07/12 10:26:54;;;;;;;1999.90;999.90;;;25.00;99.90;;;;;;4953593;29;20046;-72
2023/07/12 10:29:30;;;;;;;1999.90;999.90;;;25.60;99.90;;;;;;4953783;29;20026;-73
2023/07/12 10:31:59;;;;;;;1999.90;999.90;;;25.90;99.90;;;;;;4953240;29;20024;-72
2023/07/12 10:34:46;;;;;;;1999.90;999.90;;;25.20;99.90;;;;;;4953653;28;20031;-72
2023/07/12 10:37:31;;;;;;;1999.90;999.90;;;25.10;99.90;;;;;;4957941;28;20069;-72
2023/07/12 10:39:58;;;;;;;1999.90;999.90;;;25.20;99.90;;;;;;4952246;28;20038;-72
2023/07/12 10:42:28;;;;;;;1999.90;999.90;;;24.70;99.90;;;;;;4946022;29;20035;-72
2023/07/12 10:44:56;;;;;;;1999.90;999.90;;;24.50;99.90;;;;;;4953446;28;20039;-73
2023/07/12 10:47:29;;;;;;;1999.90;999.90;;;24.90;99.90;;;;;;4953525;28;20133;-72
2023/07/12 10:49:59;;;;;;;1999.90;999.90;;;25.20;99.90;;;;;;4953080;28;20023;-73
2023/07/12 10:52:33;;;;;;;1999.90;999.90;;;25.20;99.90;;;;;;4953560;28;20494;-72
2023/07/12 10:55:02;;;;;;;1999.90;999.90;;;24.70;99.90;;;;;;4936948;29;20049;-72
2023/07/12 10:57:37;;;;;;;1999.90;999.90;;;24.20;99.90;;;;;;4953697;29;20055;-72
2023/07/12 11:00:20;;;;;;;1999.90;999.90;;;23.80;99.90;;;;;;4953146;29;20032;-73
2023/07/12 11:02:59;;;;;;;1999.90;999.90;;;23.50;99.90;;;;;;4953233;28;20031;-72
2023/07/12 11:05:54;;;;;;;1999.90;999.90;;;23.40;99.90;;;;;;4951076;28;20034;-72
2023/07/12 11:08:31;;;;;;;1999.90;999.90;;;23.20;99.90;;;;;;4951961;29;20035;-72
2023/07/12 11:11:09;;;;;;;1999.90;999.90;;;23.80;99.90;;;;;;4951161;28;20035;-72
2023/07/12 11:13:43;;;;;;;1999.90;999.90;;;24.30;99.90;;;;;;4951511;28;20027;-73
2023/07/12 11:16:17;;;;;;;1999.90;999.90;;;25.10;99.90;;;;;;4952235;28;20427;-73
2023/07/12 11:18:54;;;;;;;1999.90;999.90;;;26.10;99.90;;;;;;4947942;29;20066;-72
2023/07/12 11:21:42;;;;;;;1999.90;999.90;;;26.30;99.90;;;;;;4951216;29;20031;-73
2023/07/12 11:24:52;;;;;;;1999.90;999.90;;;26.80;99.90;;;;;;4952181;28;20031;-73
2023/07/12 11:27:42;;;;;;;1999.90;999.90;;;26.60;99.90;;;;;;4893304;29;20039;-72
2023/07/12 11:30:24;;;;;;;1999.90;999.90;;;25.70;99.90;;;;;;4962589;28;20031;-72
2023/07/12 11:33:17;;;;;;;1999.90;999.90;;;24.70;99.90;;;;;;4950226;28;20038;-73
2023/07/12 11:35:47;;;;;;;1999.90;999.90;;;24.30;99.90;;;;;;4951643;28;20054;-70
2023/07/12 11:38:33;;;;;;;1999.90;999.90;;;23.80;99.90;;;;;;4951794;28;20486;-70
2023/07/12 11:41:13;;;;;;;1999.90;999.90;;;23.40;99.90;;;;;;4948587;28;20039;-70
2023/07/12 11:43:40;;;;;;;1999.90;999.90;;;23.20;99.90;;;;;;4950428;29;20446;-70
2023/07/12 11:46:28;;;;;;;1999.90;999.90;;;23.10;99.90;;;;;;4954283;28;20039;-70
2023/07/12 11:49:12;;;;;;;1999.90;999.90;;;23.00;99.90;;;;;;4951436;29;20038;-69
2023/07/12 11:51:40;;;;;;;1999.90;999.90;;;23.00;99.90;;;;;;4941869;29;20387;-69
2023/07/12 11:54:22;;;;;;;1999.90;999.90;;;22.70;99.90;;;;;;4956794;28;20055;-69
2023/07/12 11:56:50;;;;;;;1999.90;999.90;;;22.30;99.90;;;;;;4956050;28;20039;-69
2023/07/12 11:59:22;;;;;;;1999.90;999.90;;;22.10;99.90;;;;;;4956130;29;20035;-71
2023/07/12 12:01:49;;;;;;;1999.90;999.90;;;21.60;99.90;;;;;;4958891;28;20038;-69
2023/07/12 12:04:24;;;;;;;1999.90;999.90;;;21.40;99.90;;;;;;4955273;28;20110;-69
2023/07/12 12:06:56;;;;;;;1999.90;999.90;;;21.30;99.90;;;;;;4955625;28;20058;-69